sensor_id;sensor_type;location;lat;lon;timestamp;P1;durP1;ratioP1;P2;durP2;ratioP2
68365;SDS011;55283;51.466;5.478;2023-01-23T00:00:31;4.60;;;3.60;;
68365;SDS011;55283;51.466;5.478;2023-01-23T00:02:57;4.20;;;3.30;;
68365;SDS011;55283;51.466;5.478;2023-01-23T00:05:23;4.30;;;3.70;;
68365;SDS011;55283;51.466;5.478;2023-01-23T00:07:48;4.83;;;3.70;;
68365;SDS011;55283;51.466;5.478;2023-01-23T00:10:14;3.90;;;3.50;;
68365;SDS011;55283;51.466;5.478;2023-01-23T00:12:40;4.70;;;3.55;;
68365;SDS011;55283;51.466;5.478;2023-01-23T00:15:07;4.07;;;3.58;;
68365;SDS011;55283;51.466;5.478;2023-01-23T00:17:34;4.23;;;3.53;;
68365;SDS011;55283;51.466;5.478;2023-01-23T00:19:59;4.72;;;3.95;;
68365;SDS011;55283;51.466;5.478;2023-01-23T00:22:25;3.63;;;3.33;;
68365;SDS011;55283;51.466;5.478;2023-01-23T00:24:50;4.17;;;3.77;;
68365;SDS011;55283;51.466;5.478;2023-01-23T00:27:16;3.83;;;3.40;;
68365;SDS011;55283;51.466;5.478;2023-01-23T00:29:42;4.28;;;3.53;;
68365;SDS011;55283;51.466;5.478;2023-01-23T00:32:09;4.43;;;3.67;;
68365;SDS011;55283;51.466;5.478;2023-01-23T00:34:34;4.17;;;3.40;;
68365;SDS011;55283;51.466;5.478;2023-01-23T00:37:00;5.37;;;3.73;;
68365;SDS011;55283;51.466;5.478;2023-01-23T00:39:25;4.20;;;3.65;;
68365;SDS011;55283;51.466;5.478;2023-01-23T00:41:51;3.60;;;3.30;;
68365;SDS011;55283;51.466;5.478;2023-01-23T00:44:16;4.13;;;3.73;;
68365;SDS011;55283;51.466;5.478;2023-01-23T00:46:42;4.00;;;3.60;;
68365;SDS011;55283;51.466;5.478;2023-01-23T00:49:07;4.30;;;3.50;;
68365;SDS011;55283;51.466;5.478;2023-01-23T00:51:33;4.03;;;3.63;;
68365;SDS011;55283;51.466;5.478;2023-01-23T00:53:59;4.78;;;3.75;;
68365;SDS011;55283;51.466;5.478;2023-01-23T00:56:25;3.75;;;3.30;;
68365;SDS011;55283;51.466;5.478;2023-01-23T00:58:51;4.27;;;3.40;;
68365;SDS011;55283;51.466;5.478;2023-01-23T01:01:17;3.37;;;3.07;;
68365;SDS011;55283;51.466;5.478;2023-01-23T01:03:43;3.90;;;3.40;;
68365;SDS011;55283;51.466;5.478;2023-01-23T01:06:09;4.00;;;3.47;;
68365;SDS011;55283;51.466;5.478;2023-01-23T01:08:35;4.17;;;3.20;;
68365;SDS011;55283;51.466;5.478;2023-01-23T01:11:01;4.15;;;3.55;;
68365;SDS011;55283;51.466;5.478;2023-01-23T01:13:26;4.07;;;3.60;;
68365;SDS011;55283;51.466;5.478;2023-01-23T01:15:52;3.97;;;3.57;;
68365;SDS011;55283;51.466;5.478;2023-01-23T01:18:19;4.35;;;3.30;;
68365;SDS011;55283;51.466;5.478;2023-01-23T01:20:46;3.33;;;3.03;;
68365;SDS011;55283;51.466;5.478;2023-01-23T01:23:12;4.03;;;3.57;;
68365;SDS011;55283;51.466;5.478;2023-01-23T01:25:38;4.57;;;3.30;;
68365;SDS011;55283;51.466;5.478;2023-01-23T01:28:04;3.88;;;3.47;;
68365;SDS011;55283;51.466;5.478;2023-01-23T01:30:30;3.53;;;3.10;;
68365;SDS011;55283;51.466;5.478;2023-01-23T01:32:55;3.75;;;3.35;;
68365;SDS011;55283;51.466;5.478;2023-01-23T01:35:21;3.70;;;3.33;;
68365;SDS011;55283;51.466;5.478;2023-01-23T01:37:47;4.25;;;3.60;;
68365;SDS011;55283;51.466;5.478;2023-01-23T01:42:55;3.50;;;3.00;;
68365;SDS011;55283;51.466;5.478;2023-01-23T01:48:28;3.30;;;3.00;;
68365;SDS011;55283;51.466;5.478;2023-01-23T01:50:57;4.38;;;3.50;;
68365;SDS011;55283;51.466;5.478;2023-01-23T01:53:26;3.42;;;3.13;;
68365;SDS011;55283;51.466;5.478;2023-01-23T01:55:54;3.50;;;3.20;;
68365;SDS011;55283;51.466;5.478;2023-01-23T01:58:20;3.75;;;3.00;;
68365;SDS011;55283;51.466;5.478;2023-01-23T02:00:46;3.40;;;3.10;;
68365;SDS011;55283;51.466;5.478;2023-01-23T02:03:12;3.40;;;3.07;;
68365;SDS011;55283;51.466;5.478;2023-01-23T02:05:40;3.58;;;3.28;;
68365;SDS011;55283;51.466;5.478;2023-01-23T02:10:59;2.90;;;2.60;;
68365;SDS011;55283;51.466;5.478;2023-01-23T02:13:28;3.55;;;3.20;;
68365;SDS011;55283;51.466;5.478;2023-01-23T02:16:01;4.25;;;3.20;;
68365;SDS011;55283;51.466;5.478;2023-01-23T02:18:29;3.50;;;2.90;;
68365;SDS011;55283;51.466;5.478;2023-01-23T02:20:56;3.35;;;2.80;;
68365;SDS011;55283;51.466;5.478;2023-01-23T02:26:00;4.38;;;3.10;;
68365;SDS011;55283;51.466;5.478;2023-01-23T02:28:40;3.43;;;2.87;;
68365;SDS011;55283;51.466;5.478;2023-01-23T02:31:07;3.72;;;2.92;;
68365;SDS011;55283;51.466;5.478;2023-01-23T02:35:59;3.07;;;2.77;;
68365;SDS011;55283;51.466;5.478;2023-01-23T02:38:28;3.42;;;2.80;;
68365;SDS011;55283;51.466;5.478;2023-01-23T02:40:56;3.07;;;2.77;;
68365;SDS011;55283;51.466;5.478;2023-01-23T02:43:26;3.35;;;2.70;;
68365;SDS011;55283;51.466;5.478;2023-01-23T02:46:02;3.58;;;2.95;;
68365;SDS011;55283;51.466;5.478;2023-01-23T02:48:28;3.57;;;2.87;;
68365;SDS011;55283;51.466;5.478;2023-01-23T02:50:54;3.70;;;3.10;;
68365;SDS011;55283;51.466;5.478;2023-01-23T02:53:19;3.20;;;2.90;;
68365;SDS011;55283;51.466;5.478;2023-01-23T02:55:45;3.40;;;3.00;;
68365;SDS011;55283;51.466;5.478;2023-01-23T02:58:10;3.77;;;2.80;;
68365;SDS011;55283;51.466;5.478;2023-01-23T03:00:54;4.00;;;2.60;;
68365;SDS011;55283;51.466;5.478;2023-01-23T03:03:19;2.93;;;2.53;;
68365;SDS011;55283;51.466;5.478;2023-01-23T03:05:45;3.33;;;2.90;;
68365;SDS011;55283;51.466;5.478;2023-01-23T03:08:11;3.17;;;2.80;;
68365;SDS011;55283;51.466;5.478;2023-01-23T03:10:37;3.47;;;2.70;;
68365;SDS011;55283;51.466;5.478;2023-01-23T03:13:02;3.80;;;2.97;;
68365;SDS011;55283;51.466;5.478;2023-01-23T03:15:31;3.88;;;2.80;;
68365;SDS011;55283;51.466;5.478;2023-01-23T03:17:58;3.23;;;2.50;;
68365;SDS011;55283;51.466;5.478;2023-01-23T03:20:24;3.17;;;2.72;;
68365;SDS011;55283;51.466;5.478;2023-01-23T03:22:51;2.90;;;2.60;;
68365;SDS011;55283;51.466;5.478;2023-01-23T03:25:17;3.57;;;2.73;;
68365;SDS011;55283;51.466;5.478;2023-01-23T03:27:42;2.85;;;2.55;;
68365;SDS011;55283;51.466;5.478;2023-01-23T03:30:10;2.80;;;2.43;;
68365;SDS011;55283;51.466;5.478;2023-01-23T03:32:40;2.95;;;2.65;;
68365;SDS011;55283;51.466;5.478;2023-01-23T03:35:07;2.87;;;2.57;;
68365;SDS011;55283;51.466;5.478;2023-01-23T03:37:34;3.50;;;2.85;;
68365;SDS011;55283;51.466;5.478;2023-01-23T03:40:01;3.15;;;2.55;;
68365;SDS011;55283;51.466;5.478;2023-01-23T03:42:45;2.67;;;2.43;;
68365;SDS011;55283;51.466;5.478;2023-01-23T03:45:10;3.25;;;2.72;;
68365;SDS011;55283;51.466;5.478;2023-01-23T03:47:36;3.13;;;2.70;;
68365;SDS011;55283;51.466;5.478;2023-01-23T03:50:01;2.90;;;2.60;;
68365;SDS011;55283;51.466;5.478;2023-01-23T03:52:27;3.03;;;2.72;;
68365;SDS011;55283;51.466;5.478;2023-01-23T03:54:53;2.93;;;2.57;;
68365;SDS011;55283;51.466;5.478;2023-01-23T03:57:18;2.90;;;2.47;;
68365;SDS011;55283;51.466;5.478;2023-01-23T03:59:44;3.00;;;2.67;;
68365;SDS011;55283;51.466;5.478;2023-01-23T04:02:09;3.10;;;2.80;;
68365;SDS011;55283;51.466;5.478;2023-01-23T04:04:35;2.73;;;2.53;;
68365;SDS011;55283;51.466;5.478;2023-01-23T04:07:01;2.80;;;2.60;;
68365;SDS011;55283;51.466;5.478;2023-01-23T04:09:27;2.80;;;2.47;;
68365;SDS011;55283;51.466;5.478;2023-01-23T04:11:53;3.00;;;2.70;;
68365;SDS011;55283;51.466;5.478;2023-01-23T04:14:20;3.15;;;2.70;;
68365;SDS011;55283;51.466;5.478;2023-01-23T04:16:47;4.03;;;3.07;;
68365;SDS011;55283;51.466;5.478;2023-01-23T04:19:12;2.90;;;2.53;;
68365;SDS011;55283;51.466;5.478;2023-01-23T04:21:38;3.60;;;2.60;;
68365;SDS011;55283;51.466;5.478;2023-01-23T04:24:03;3.20;;;2.60;;
68365;SDS011;55283;51.466;5.478;2023-01-23T04:26:29;3.38;;;2.47;;
68365;SDS011;55283;51.466;5.478;2023-01-23T04:28:54;2.90;;;2.60;;
68365;SDS011;55283;51.466;5.478;2023-01-23T04:31:20;2.97;;;2.63;;
68365;SDS011;55283;51.466;5.478;2023-01-23T04:33:45;2.80;;;2.50;;
68365;SDS011;55283;51.466;5.478;2023-01-23T04:36:11;3.03;;;2.73;;
68365;SDS011;55283;51.466;5.478;2023-01-23T04:38:36;2.73;;;2.47;;
68365;SDS011;55283;51.466;5.478;2023-01-23T04:41:02;3.57;;;2.80;;
68365;SDS011;55283;51.466;5.478;2023-01-23T04:43:28;2.83;;;2.50;;
68365;SDS011;55283;51.466;5.478;2023-01-23T04:45:54;2.70;;;2.40;;
68365;SDS011;55283;51.466;5.478;2023-01-23T04:48:20;2.80;;;2.60;;
68365;SDS011;55283;51.466;5.478;2023-01-23T04:50:46;2.50;;;2.30;;
68365;SDS011;55283;51.466;5.478;2023-01-23T04:53:12;2.85;;;2.58;;
68365;SDS011;55283;51.466;5.478;2023-01-23T04:55:38;2.57;;;2.37;;
68365;SDS011;55283;51.466;5.478;2023-01-23T04:58:04;2.67;;;2.45;;
68365;SDS011;55283;51.466;5.478;2023-01-23T05:00:29;3.17;;;2.40;;
68365;SDS011;55283;51.466;5.478;2023-01-23T05:02:55;3.20;;;2.90;;
68365;SDS011;55283;51.466;5.478;2023-01-23T05:05:20;2.80;;;2.30;;
68365;SDS011;55283;51.466;5.478;2023-01-23T05:07:47;3.13;;;2.90;;
68365;SDS011;55283;51.466;5.478;2023-01-23T05:10:13;3.10;;;2.80;;
68365;SDS011;55283;51.466;5.478;2023-01-23T05:12:39;3.55;;;2.60;;
68365;SDS011;55283;51.466;5.478;2023-01-23T05:15:05;2.83;;;2.53;;
68365;SDS011;55283;51.466;5.478;2023-01-23T05:17:32;2.73;;;2.53;;
68365;SDS011;55283;51.466;5.478;2023-01-23T05:19:58;2.65;;;2.45;;
68365;SDS011;55283;51.466;5.478;2023-01-23T05:22:23;3.17;;;2.73;;
68365;SDS011;55283;51.466;5.478;2023-01-23T05:24:48;2.60;;;2.40;;
68365;SDS011;55283;51.466;5.478;2023-01-23T05:27:14;2.87;;;2.30;;
68365;SDS011;55283;51.466;5.478;2023-01-23T05:29:39;2.78;;;2.42;;
68365;SDS011;55283;51.466;5.478;2023-01-23T05:32:05;2.60;;;2.40;;
68365;SDS011;55283;51.466;5.478;2023-01-23T05:34:31;2.50;;;2.30;;
68365;SDS011;55283;51.466;5.478;2023-01-23T05:36:56;2.60;;;2.40;;
68365;SDS011;55283;51.466;5.478;2023-01-23T05:39:21;2.77;;;2.30;;
68365;SDS011;55283;51.466;5.478;2023-01-23T05:41:47;2.90;;;2.60;;
68365;SDS011;55283;51.466;5.478;2023-01-23T05:44:12;2.47;;;2.27;;
68365;SDS011;55283;51.466;5.478;2023-01-23T05:46:38;2.35;;;2.13;;
68365;SDS011;55283;51.466;5.478;2023-01-23T05:49:03;2.40;;;2.20;;
68365;SDS011;55283;51.466;5.478;2023-01-23T05:51:29;2.97;;;2.40;;
68365;SDS011;55283;51.466;5.478;2023-01-23T05:54:01;2.50;;;2.30;;
68365;SDS011;55283;51.466;5.478;2023-01-23T05:56:27;2.70;;;2.40;;
68365;SDS011;55283;51.466;5.478;2023-01-23T05:58:53;2.60;;;2.40;;
68365;SDS011;55283;51.466;5.478;2023-01-23T06:01:18;2.90;;;2.37;;
68365;SDS011;55283;51.466;5.478;2023-01-23T06:03:44;2.93;;;2.63;;
68365;SDS011;55283;51.466;5.478;2023-01-23T06:06:10;2.47;;;2.10;;
68365;SDS011;55283;51.466;5.478;2023-01-23T06:08:36;2.90;;;2.60;;
68365;SDS011;55283;51.466;5.478;2023-01-23T06:11:01;2.70;;;2.50;;
68365;SDS011;55283;51.466;5.478;2023-01-23T06:13:27;2.55;;;2.35;;
68365;SDS011;55283;51.466;5.478;2023-01-23T06:15:53;2.80;;;2.30;;
68365;SDS011;55283;51.466;5.478;2023-01-23T06:18:18;2.88;;;2.58;;
68365;SDS011;55283;51.466;5.478;2023-01-23T06:20:44;3.03;;;2.40;;
68365;SDS011;55283;51.466;5.478;2023-01-23T06:23:10;2.57;;;2.30;;
68365;SDS011;55283;51.466;5.478;2023-01-23T06:25:36;2.88;;;2.60;;
68365;SDS011;55283;51.466;5.478;2023-01-23T06:28:02;2.87;;;2.43;;
68365;SDS011;55283;51.466;5.478;2023-01-23T06:30:27;2.50;;;2.30;;
68365;SDS011;55283;51.466;5.478;2023-01-23T06:32:53;2.63;;;2.10;;
68365;SDS011;55283;51.466;5.478;2023-01-23T06:35:18;3.03;;;2.37;;
68365;SDS011;55283;51.466;5.478;2023-01-23T06:37:44;2.30;;;2.10;;
68365;SDS011;55283;51.466;5.478;2023-01-23T06:40:09;7.55;;;2.42;;
68365;SDS011;55283;51.466;5.478;2023-01-23T06:42:38;2.30;;;2.00;;
68365;SDS011;55283;51.466;5.478;2023-01-23T06:45:05;3.35;;;2.38;;
68365;SDS011;55283;51.466;5.478;2023-01-23T06:47:31;2.95;;;2.08;;
68365;SDS011;55283;51.466;5.478;2023-01-23T06:49:57;3.77;;;2.37;;
68365;SDS011;55283;51.466;5.478;2023-01-23T06:52:22;2.43;;;2.00;;
68365;SDS011;55283;51.466;5.478;2023-01-23T06:54:48;2.53;;;2.10;;
68365;SDS011;55283;51.466;5.478;2023-01-23T06:57:13;2.37;;;2.10;;
68365;SDS011;55283;51.466;5.478;2023-01-23T06:59:39;3.25;;;2.20;;
68365;SDS011;55283;51.466;5.478;2023-01-23T07:02:05;2.50;;;2.13;;
68365;SDS011;55283;51.466;5.478;2023-01-23T07:04:31;4.93;;;2.20;;
68365;SDS011;55283;51.466;5.478;2023-01-23T07:06:57;6.80;;;2.30;;
68365;SDS011;55283;51.466;5.478;2023-01-23T07:09:22;6.50;;;2.57;;
68365;SDS011;55283;51.466;5.478;2023-01-23T07:11:48;3.23;;;2.10;;
68365;SDS011;55283;51.466;5.478;2023-01-23T07:14:13;3.73;;;2.30;;
68365;SDS011;55283;51.466;5.478;2023-01-23T07:16:39;2.38;;;2.17;;
68365;SDS011;55283;51.466;5.478;2023-01-23T07:19:04;3.47;;;2.40;;
68365;SDS011;55283;51.466;5.478;2023-01-23T07:21:30;8.00;;;2.63;;
68365;SDS011;55283;51.466;5.478;2023-01-23T07:23:56;11.95;;;7.20;;
68365;SDS011;55283;51.466;5.478;2023-01-23T07:26:21;12.13;;;8.90;;
68365;SDS011;55283;51.466;5.478;2023-01-23T07:28:47;13.30;;;9.07;;
68365;SDS011;55283;51.466;5.478;2023-01-23T07:31:12;11.43;;;8.52;;
68365;SDS011;55283;51.466;5.478;2023-01-23T07:33:38;15.27;;;6.33;;
68365;SDS011;55283;51.466;5.478;2023-01-23T07:36:04;8.73;;;6.40;;
68365;SDS011;55283;51.466;5.478;2023-01-23T07:38:31;10.43;;;6.22;;
68365;SDS011;55283;51.466;5.478;2023-01-23T07:40:57;8.48;;;5.43;;
68365;SDS011;55283;51.466;5.478;2023-01-23T07:43:23;8.57;;;6.20;;
68365;SDS011;55283;51.466;5.478;2023-01-23T07:45:49;7.82;;;5.70;;
68365;SDS011;55283;51.466;5.478;2023-01-23T07:48:14;11.95;;;5.40;;
68365;SDS011;55283;51.466;5.478;2023-01-23T07:50:40;6.83;;;5.30;;
68365;SDS011;55283;51.466;5.478;2023-01-23T07:53:06;7.38;;;5.15;;
68365;SDS011;55283;51.466;5.478;2023-01-23T07:55:32;7.17;;;5.10;;
68365;SDS011;55283;51.466;5.478;2023-01-23T07:57:57;5.70;;;4.72;;
68365;SDS011;55283;51.466;5.478;2023-01-23T08:00:23;9.80;;;4.73;;
68365;SDS011;55283;51.466;5.478;2023-01-23T08:02:49;5.83;;;4.13;;
68365;SDS011;55283;51.466;5.478;2023-01-23T08:05:15;8.50;;;5.17;;
68365;SDS011;55283;51.466;5.478;2023-01-23T08:07:40;7.40;;;4.78;;
68365;SDS011;55283;51.466;5.478;2023-01-23T08:10:06;6.00;;;4.80;;
68365;SDS011;55283;51.466;5.478;2023-01-23T08:12:33;6.45;;;4.20;;
68365;SDS011;55283;51.466;5.478;2023-01-23T08:14:58;6.33;;;4.53;;
68365;SDS011;55283;51.466;5.478;2023-01-23T08:17:24;5.37;;;4.40;;
68365;SDS011;55283;51.466;5.478;2023-01-23T08:19:49;8.83;;;4.13;;
68365;SDS011;55283;51.466;5.478;2023-01-23T08:22:15;4.97;;;3.90;;
68365;SDS011;55283;51.466;5.478;2023-01-23T08:24:40;4.20;;;3.78;;
68365;SDS011;55283;51.466;5.478;2023-01-23T08:27:06;4.70;;;3.57;;
68365;SDS011;55283;51.466;5.478;2023-01-23T08:29:31;5.17;;;3.97;;
68365;SDS011;55283;51.466;5.478;2023-01-23T08:31:58;6.55;;;3.80;;
68365;SDS011;55283;51.466;5.478;2023-01-23T08:34:23;4.63;;;3.40;;
68365;SDS011;55283;51.466;5.478;2023-01-23T08:36:49;4.00;;;3.43;;
68365;SDS011;55283;51.466;5.478;2023-01-23T08:39:15;6.13;;;3.70;;
68365;SDS011;55283;51.466;5.478;2023-01-23T08:41:41;4.90;;;3.60;;
68365;SDS011;55283;51.466;5.478;2023-01-23T08:44:06;5.30;;;3.63;;
68365;SDS011;55283;51.466;5.478;2023-01-23T08:46:32;6.03;;;3.20;;
68365;SDS011;55283;51.466;5.478;2023-01-23T08:48:57;7.83;;;3.50;;
68365;SDS011;55283;51.466;5.478;2023-01-23T08:51:23;3.95;;;3.08;;
68365;SDS011;55283;51.466;5.478;2023-01-23T08:53:52;5.57;;;3.10;;
68365;SDS011;55283;51.466;5.478;2023-01-23T08:56:18;9.27;;;3.30;;
68365;SDS011;55283;51.466;5.478;2023-01-23T08:58:45;5.13;;;3.10;;
68365;SDS011;55283;51.466;5.478;2023-01-23T09:01:12;5.10;;;3.20;;
68365;SDS011;55283;51.466;5.478;2023-01-23T09:03:38;5.05;;;2.92;;
68365;SDS011;55283;51.466;5.478;2023-01-23T09:06:04;4.77;;;3.20;;
68365;SDS011;55283;51.466;5.478;2023-01-23T09:08:29;4.75;;;3.10;;
68365;SDS011;55283;51.466;5.478;2023-01-23T09:10:59;5.07;;;3.03;;
68365;SDS011;55283;51.466;5.478;2023-01-23T09:13:28;3.28;;;2.72;;
68365;SDS011;55283;51.466;5.478;2023-01-23T09:15:54;3.53;;;2.95;;
68365;SDS011;55283;51.466;5.478;2023-01-23T09:18:19;8.00;;;3.10;;
68365;SDS011;55283;51.466;5.478;2023-01-23T09:20:47;3.47;;;2.97;;
68365;SDS011;55283;51.466;5.478;2023-01-23T09:23:13;3.17;;;2.70;;
68365;SDS011;55283;51.466;5.478;2023-01-23T09:25:38;3.97;;;3.03;;
68365;SDS011;55283;51.466;5.478;2023-01-23T09:28:04;7.67;;;2.93;;
68365;SDS011;55283;51.466;5.478;2023-01-23T09:30:30;4.00;;;2.93;;
68365;SDS011;55283;51.466;5.478;2023-01-23T09:32:55;4.20;;;2.80;;
68365;SDS011;55283;51.466;5.478;2023-01-23T09:35:21;4.32;;;2.80;;
68365;SDS011;55283;51.466;5.478;2023-01-23T09:37:48;3.83;;;2.60;;
68365;SDS011;55283;51.466;5.478;2023-01-23T09:40:26;3.63;;;2.90;;
68365;SDS011;55283;51.466;5.478;2023-01-23T09:42:56;5.32;;;3.03;;
68365;SDS011;55283;51.466;5.478;2023-01-23T09:45:25;3.40;;;2.73;;
68365;SDS011;55283;51.466;5.478;2023-01-23T09:47:56;5.20;;;2.80;;
68365;SDS011;55283;51.466;5.478;2023-01-23T09:50:35;3.13;;;2.58;;
68365;SDS011;55283;51.466;5.478;2023-01-23T09:53:06;3.58;;;2.80;;
68365;SDS011;55283;51.466;5.478;2023-01-23T09:55:38;5.83;;;2.90;;
68365;SDS011;55283;51.466;5.478;2023-01-23T09:58:18;6.40;;;2.80;;
68365;SDS011;55283;51.466;5.478;2023-01-23T10:00:49;7.25;;;2.70;;
68365;SDS011;55283;51.466;5.478;2023-01-23T10:03:15;8.47;;;2.80;;
68365;SDS011;55283;51.466;5.478;2023-01-23T10:06:05;3.50;;;2.53;;
68365;SDS011;55283;51.466;5.478;2023-01-23T10:25:41;3.22;;;2.90;;
68365;SDS011;55283;51.466;5.478;2023-01-23T10:31:22;4.03;;;2.80;;
68365;SDS011;55283;51.466;5.478;2023-01-23T10:36:35;3.13;;;2.60;;
68365;SDS011;55283;51.466;5.478;2023-01-23T10:39:05;4.90;;;2.77;;
68365;SDS011;55283;51.466;5.478;2023-01-23T10:41:38;3.85;;;2.60;;
68365;SDS011;55283;51.466;5.478;2023-01-23T10:44:04;4.40;;;2.63;;
68365;SDS011;55283;51.466;5.478;2023-01-23T10:46:42;3.28;;;2.78;;
68365;SDS011;55283;51.466;5.478;2023-01-23T10:49:22;5.22;;;2.92;;
68365;SDS011;55283;51.466;5.478;2023-01-23T10:51:52;3.70;;;2.70;;
68365;SDS011;55283;51.466;5.478;2023-01-23T10:54:19;3.78;;;2.50;;
68365;SDS011;55283;51.466;5.478;2023-01-23T10:56:53;4.33;;;2.80;;
68365;SDS011;55283;51.466;5.478;2023-01-23T10:59:34;2.72;;;2.33;;
68365;SDS011;55283;51.466;5.478;2023-01-23T11:04:29;3.10;;;2.50;;
68365;SDS011;55283;51.466;5.478;2023-01-23T11:07:00;3.75;;;2.53;;
68365;SDS011;55283;51.466;5.478;2023-01-23T11:09:45;3.15;;;2.50;;
68365;SDS011;55283;51.466;5.478;2023-01-23T11:12:16;4.17;;;2.70;;
68365;SDS011;55283;51.466;5.478;2023-01-23T11:14:46;3.72;;;2.50;;
68365;SDS011;55283;51.466;5.478;2023-01-23T11:19:39;3.00;;;2.40;;
68365;SDS011;55283;51.466;5.478;2023-01-23T11:22:20;3.90;;;2.60;;
68365;SDS011;55283;51.466;5.478;2023-01-23T11:24:50;3.58;;;2.70;;
68365;SDS011;55283;51.466;5.478;2023-01-23T11:32:58;3.63;;;2.63;;
68365;SDS011;55283;51.466;5.478;2023-01-23T11:38:07;3.97;;;2.45;;
68365;SDS011;55283;51.466;5.478;2023-01-23T11:40:40;3.17;;;2.70;;
68365;SDS011;55283;51.466;5.478;2023-01-23T11:43:15;4.22;;;2.38;;
68365;SDS011;55283;51.466;5.478;2023-01-23T12:05:07;4.77;;;2.60;;
68365;SDS011;55283;51.466;5.478;2023-01-23T12:24:09;4.00;;;2.60;;
68365;SDS011;55283;51.466;5.478;2023-01-23T12:27:26;3.08;;;2.42;;
68365;SDS011;55283;51.466;5.478;2023-01-23T12:40:21;3.47;;;2.50;;
68365;SDS011;55283;51.466;5.478;2023-01-23T12:43:08;2.90;;;2.58;;
68365;SDS011;55283;51.466;5.478;2023-01-23T12:45:44;4.43;;;2.60;;
68365;SDS011;55283;51.466;5.478;2023-01-23T12:48:36;2.65;;;2.45;;
68365;SDS011;55283;51.466;5.478;2023-01-23T12:51:26;5.37;;;2.60;;
68365;SDS011;55283;51.466;5.478;2023-01-23T12:53:57;3.35;;;2.85;;
68365;SDS011;55283;51.466;5.478;2023-01-23T12:56:31;2.80;;;2.50;;
68365;SDS011;55283;51.466;5.478;2023-01-23T13:02:11;3.42;;;2.50;;
68365;SDS011;55283;51.466;5.478;2023-01-23T13:07:57;2.60;;;2.40;;
68365;SDS011;55283;51.466;5.478;2023-01-23T13:10:53;3.45;;;2.53;;
68365;SDS011;55283;51.466;5.478;2023-01-23T13:13:41;2.63;;;2.30;;
68365;SDS011;55283;51.466;5.478;2023-01-23T13:16:14;4.63;;;2.28;;
68365;SDS011;55283;51.466;5.478;2023-01-23T13:18:54;2.60;;;2.40;;
68365;SDS011;55283;51.466;5.478;2023-01-23T13:22:00;2.80;;;2.45;;
68365;SDS011;55283;51.466;5.478;2023-01-23T13:24:38;3.00;;;2.60;;
68365;SDS011;55283;51.466;5.478;2023-01-23T13:32:51;3.20;;;2.53;;
68365;SDS011;55283;51.466;5.478;2023-01-23T13:52:16;3.40;;;2.60;;
68365;SDS011;55283;51.466;5.478;2023-01-23T13:55:05;3.47;;;2.50;;
68365;SDS011;55283;51.466;5.478;2023-01-23T13:58:09;3.75;;;2.70;;
68365;SDS011;55283;51.466;5.478;2023-01-23T14:00:37;2.85;;;2.50;;
68365;SDS011;55283;51.466;5.478;2023-01-23T14:03:17;5.23;;;2.70;;
68365;SDS011;55283;51.466;5.478;2023-01-23T14:06:04;3.03;;;2.60;;
68365;SDS011;55283;51.466;5.478;2023-01-23T14:08:31;3.40;;;2.78;;
68365;SDS011;55283;51.466;5.478;2023-01-23T14:10:56;2.60;;;2.40;;
68365;SDS011;55283;51.466;5.478;2023-01-23T14:13:22;2.80;;;2.60;;
68365;SDS011;55283;51.466;5.478;2023-01-23T14:15:49;2.97;;;2.30;;
68365;SDS011;55283;51.466;5.478;2023-01-23T14:21:18;3.10;;;2.60;;
68365;SDS011;55283;51.466;5.478;2023-01-23T14:23:52;3.40;;;2.80;;
68365;SDS011;55283;51.466;5.478;2023-01-23T14:26:29;3.42;;;2.55;;
68365;SDS011;55283;51.466;5.478;2023-01-23T14:28:57;3.20;;;2.42;;
68365;SDS011;55283;51.466;5.478;2023-01-23T14:31:29;3.00;;;2.33;;
68365;SDS011;55283;51.466;5.478;2023-01-23T14:34:05;3.17;;;2.88;;
68365;SDS011;55283;51.466;5.478;2023-01-23T14:36:32;4.00;;;2.22;;
68365;SDS011;55283;51.466;5.478;2023-01-23T14:39:00;4.67;;;2.50;;
68365;SDS011;55283;51.466;5.478;2023-01-23T14:41:30;3.00;;;2.25;;
68365;SDS011;55283;51.466;5.478;2023-01-23T14:43:58;3.00;;;2.50;;
68365;SDS011;55283;51.466;5.478;2023-01-23T14:46:34;2.60;;;2.40;;
68365;SDS011;55283;51.466;5.478;2023-01-23T14:49:06;4.10;;;2.47;;
68365;SDS011;55283;51.466;5.478;2023-01-23T14:51:34;3.17;;;2.70;;
68365;SDS011;55283;51.466;5.478;2023-01-23T14:54:04;3.05;;;2.60;;
68365;SDS011;55283;51.466;5.478;2023-01-23T14:56:40;3.33;;;2.90;;
68365;SDS011;55283;51.466;5.478;2023-01-23T14:59:14;2.97;;;2.67;;
68365;SDS011;55283;51.466;5.478;2023-01-23T15:01:42;2.85;;;2.53;;
68365;SDS011;55283;51.466;5.478;2023-01-23T15:04:20;3.00;;;2.70;;
68365;SDS011;55283;51.466;5.478;2023-01-23T15:07:20;3.45;;;2.58;;
68365;SDS011;55283;51.466;5.478;2023-01-23T15:09:41;2.75;;;2.42;;
68365;SDS011;55283;51.466;5.478;2023-01-23T15:12:14;2.75;;;2.40;;
68365;SDS011;55283;51.466;5.478;2023-01-23T15:14:41;2.90;;;2.40;;
68365;SDS011;55283;51.466;5.478;2023-01-23T15:17:15;3.70;;;2.55;;
68365;SDS011;55283;51.466;5.478;2023-01-23T15:19:48;3.17;;;2.50;;
68365;SDS011;55283;51.466;5.478;2023-01-23T15:22:16;2.67;;;2.47;;
68365;SDS011;55283;51.466;5.478;2023-01-23T15:24:49;3.00;;;2.50;;
68365;SDS011;55283;51.466;5.478;2023-01-23T15:27:33;2.97;;;2.40;;
68365;SDS011;55283;51.466;5.478;2023-01-23T15:33:01;2.97;;;2.20;;
68365;SDS011;55283;51.466;5.478;2023-01-23T15:35:32;2.83;;;2.50;;
68365;SDS011;55283;51.466;5.478;2023-01-23T15:38:02;3.00;;;2.50;;
68365;SDS011;55283;51.466;5.478;2023-01-23T15:40:29;3.15;;;2.30;;
68365;SDS011;55283;51.466;5.478;2023-01-23T15:43:13;3.30;;;2.63;;
68365;SDS011;55283;51.466;5.478;2023-01-23T15:45:42;2.60;;;2.40;;
68365;SDS011;55283;51.466;5.478;2023-01-23T15:48:07;3.13;;;2.50;;
68365;SDS011;55283;51.466;5.478;2023-01-23T15:50:33;2.67;;;2.40;;
68365;SDS011;55283;51.466;5.478;2023-01-23T15:52:58;3.87;;;2.60;;
68365;SDS011;55283;51.466;5.478;2023-01-23T15:55:25;2.97;;;2.43;;
68365;SDS011;55283;51.466;5.478;2023-01-23T15:57:52;3.13;;;2.40;;
68365;SDS011;55283;51.466;5.478;2023-01-23T16:00:19;2.53;;;2.33;;
68365;SDS011;55283;51.466;5.478;2023-01-23T16:02:44;3.17;;;2.40;;
68365;SDS011;55283;51.466;5.478;2023-01-23T16:05:10;3.72;;;2.28;;
68365;SDS011;55283;51.466;5.478;2023-01-23T16:07:37;3.30;;;2.70;;
68365;SDS011;55283;51.466;5.478;2023-01-23T16:10:15;2.85;;;2.42;;
68365;SDS011;55283;51.466;5.478;2023-01-23T16:12:43;2.50;;;2.30;;
68365;SDS011;55283;51.466;5.478;2023-01-23T16:15:16;2.78;;;2.50;;
68365;SDS011;55283;51.466;5.478;2023-01-23T16:17:44;3.83;;;2.30;;
68365;SDS011;55283;51.466;5.478;2023-01-23T16:20:16;2.58;;;2.30;;
68365;SDS011;55283;51.466;5.478;2023-01-23T16:22:57;2.57;;;2.37;;
68365;SDS011;55283;51.466;5.478;2023-01-23T16:25:26;2.85;;;2.55;;
68365;SDS011;55283;51.466;5.478;2023-01-23T16:27:53;2.80;;;2.30;;
68365;SDS011;55283;51.466;5.478;2023-01-23T16:30:20;3.10;;;2.50;;
68365;SDS011;55283;51.466;5.478;2023-01-23T16:32:46;3.95;;;2.50;;
68365;SDS011;55283;51.466;5.478;2023-01-23T16:35:12;6.80;;;2.80;;
68365;SDS011;55283;51.466;5.478;2023-01-23T16:37:42;3.33;;;2.50;;
68365;SDS011;55283;51.466;5.478;2023-01-23T16:40:14;4.55;;;2.60;;
68365;SDS011;55283;51.466;5.478;2023-01-23T16:42:40;3.13;;;2.33;;
68365;SDS011;55283;51.466;5.478;2023-01-23T16:45:28;2.78;;;2.20;;
68365;SDS011;55283;51.466;5.478;2023-01-23T16:47:55;3.87;;;2.33;;
68365;SDS011;55283;51.466;5.478;2023-01-23T16:50:42;2.40;;;2.20;;
68365;SDS011;55283;51.466;5.478;2023-01-23T16:53:15;2.88;;;2.50;;
68365;SDS011;55283;51.466;5.478;2023-01-23T16:55:48;4.53;;;2.30;;
68365;SDS011;55283;51.466;5.478;2023-01-23T16:58:16;5.10;;;2.40;;
68365;SDS011;55283;51.466;5.478;2023-01-23T17:00:45;2.80;;;2.30;;
68365;SDS011;55283;51.466;5.478;2023-01-23T17:03:12;3.90;;;2.30;;
68365;SDS011;55283;51.466;5.478;2023-01-23T17:05:48;4.13;;;2.38;;
68365;SDS011;55283;51.466;5.478;2023-01-23T17:10:50;3.05;;;2.45;;